sensor_id;sensor_type;location;lat;lon;timestamp;pressure;altitude;pressure_sealevel;temperature;humidity
61436;BME280;47304;47.456;19.160;2023-08-06T14:57:42;98965.27;;;17.89;72.80
61436;BME280;47304;47.456;19.160;2023-08-06T15:00:10;98974.39;;;17.87;72.73
61436;BME280;47304;47.456;19.160;2023-08-06T15:02:38;98973.81;;;17.88;72.51
61436;BME280;47304;47.456;19.160;2023-08-06T15:05:05;98973.33;;;17.87;72.23
61436;BME280;47304;47.456;19.160;2023-08-06T15:07:33;98977.91;;;17.87;72.32
61436;BME280;47304;47.456;19.160;2023-08-06T15:10:00;98977.09;;;17.90;72.37
61436;BME280;47304;47.456;19.160;2023-08-06T15:12:48;98980.34;;;17.92;72.17
61436;BME280;47304;47.456;19.160;2023-08-06T15:15:15;98979.67;;;17.94;72.14
61436;BME280;47304;47.456;19.160;2023-08-06T15:17:42;98984.70;;;17.97;72.04
61436;BME280;47304;47.456;19.160;2023-08-06T15:20:12;98985.51;;;17.99;72.03
61436;BME280;47304;47.456;19.160;2023-08-06T15:22:39;98983.02;;;18.02;72.24
61436;BME280;47304;47.456;19.160;2023-08-06T15:25:06;98986.43;;;18.04;72.11
61436;BME280;47304;47.456;19.160;2023-08-06T15:27:34;98989.77;;;18.05;72.13
61436;BME280;47304;47.456;19.160;2023-08-06T15:30:03;98990.30;;;18.05;72.37
61436;BME280;47304;47.456;19.160;2023-08-06T15:32:31;98989.61;;;18.01;71.99
61436;BME280;47304;47.456;19.160;2023-08-06T15:34:58;98991.33;;;17.99;72.04
61436;BME280;47304;47.456;19.160;2023-08-06T15:37:27;98989.45;;;17.98;71.94
61436;BME280;47304;47.456;19.160;2023-08-06T15:39:53;98989.67;;;17.97;71.33
61436;BME280;47304;47.456;19.160;2023-08-06T15:42:20;98992.90;;;17.96;71.47
61436;BME280;47304;47.456;19.160;2023-08-06T15:44:47;98997.70;;;17.96;71.27
61436;BME280;47304;47.456;19.160;2023-08-06T15:47:14;98997.32;;;17.96;71.27
61436;BME280;47304;47.456;19.160;2023-08-06T15:49:41;98996.55;;;17.97;71.08
61436;BME280;47304;47.456;19.160;2023-08-06T15:52:08;99000.91;;;17.99;71.02
61436;BME280;47304;47.456;19.160;2023-08-06T15:54:35;99003.13;;;18.01;71.04
61436;BME280;47304;47.456;19.160;2023-08-06T15:57:02;99005.17;;;18.02;70.53
61436;BME280;47304;47.456;19.160;2023-08-06T15:59:30;99009.92;;;18.03;70.50
61436;BME280;47304;47.456;19.160;2023-08-06T16:01:58;99017.15;;;18.04;70.29
61436;BME280;47304;47.456;19.160;2023-08-06T16:04:26;99022.80;;;18.04;70.36
61436;BME280;47304;47.456;19.160;2023-08-06T16:06:53;99031.27;;;18.04;70.32
61436;BME280;47304;47.456;19.160;2023-08-06T16:09:20;99027.02;;;18.04;70.20
61436;BME280;47304;47.456;19.160;2023-08-06T16:11:48;99032.08;;;18.06;70.06
61436;BME280;47304;47.456;19.160;2023-08-06T16:14:14;99035.60;;;18.06;70.14
61436;BME280;47304;47.456;19.160;2023-08-06T16:16:41;99034.70;;;18.06;70.03
61436;BME280;47304;47.456;19.160;2023-08-06T16:19:09;99039.42;;;18.04;69.78
61436;BME280;47304;47.456;19.160;2023-08-06T16:21:36;99042.20;;;18.02;69.90
61436;BME280;47304;47.456;19.160;2023-08-06T16:24:03;99043.15;;;18.01;69.95
61436;BME280;47304;47.456;19.160;2023-08-06T16:26:30;99047.39;;;17.98;69.89
61436;BME280;47304;47.456;19.160;2023-08-06T16:28:57;99046.58;;;17.96;70.06
61436;BME280;47304;47.456;19.160;2023-08-06T16:31:25;99048.52;;;17.96;70.11
61436;BME280;47304;47.456;19.160;2023-08-06T16:33:51;99051.86;;;17.97;70.17
61436;BME280;47304;47.456;19.160;2023-08-06T16:36:19;99051.88;;;17.96;69.83
61436;BME280;47304;47.456;19.160;2023-08-06T16:38:46;99056.33;;;17.96;69.51
61436;BME280;47304;47.456;19.160;2023-08-06T16:41:13;99054.05;;;17.95;69.17
61436;BME280;47304;47.456;19.160;2023-08-06T16:43:39;99062.27;;;17.94;68.94
61436;BME280;47304;47.456;19.160;2023-08-06T16:46:06;99061.64;;;17.92;68.60
61436;BME280;47304;47.456;19.160;2023-08-06T16:48:33;99057.17;;;17.89;68.50
61436;BME280;47304;47.456;19.160;2023-08-06T16:51:00;99056.70;;;17.88;68.88
61436;BME280;47304;47.456;19.160;2023-08-06T16:53:27;99058.70;;;17.87;68.70
61436;BME280;47304;47.456;19.160;2023-08-06T16:55:55;99065.52;;;17.85;68.80
61436;BME280;47304;47.456;19.160;2023-08-06T16:58:22;99073.05;;;17.84;68.54
61436;BME280;47304;47.456;19.160;2023-08-06T17:00:49;99077.55;;;17.82;68.55
61436;BME280;47304;47.456;19.160;2023-08-06T17:03:17;99080.61;;;17.78;68.59
61436;BME280;47304;47.456;19.160;2023-08-06T17:05:44;99077.11;;;17.73;69.02
61436;BME280;47304;47.456;19.160;2023-08-06T17:08:11;99085.04;;;17.71;69.35
61436;BME280;47304;47.456;19.160;2023-08-06T17:10:38;99088.48;;;17.69;69.83
61436;BME280;47304;47.456;19.160;2023-08-06T17:13:05;99098.25;;;17.68;70.03
61436;BME280;47304;47.456;19.160;2023-08-06T17:15:46;99101.48;;;17.68;70.01
61436;BME280;47304;47.456;19.160;2023-08-06T17:18:14;99099.52;;;17.64;69.91
61436;BME280;47304;47.456;19.160;2023-08-06T17:20:41;99103.13;;;17.62;70.33
61436;BME280;47304;47.456;19.160;2023-08-06T17:23:08;99106.92;;;17.61;70.36
61436;BME280;47304;47.456;19.160;2023-08-06T17:25:34;99105.98;;;17.59;70.20
61436;BME280;47304;47.456;19.160;2023-08-06T17:28:02;99110.61;;;17.55;70.16
61436;BME280;47304;47.456;19.160;2023-08-06T17:30:30;99109.77;;;17.51;70.65
61436;BME280;47304;47.456;19.160;2023-08-06T17:32:57;99113.16;;;17.50;70.91
61436;BME280;47304;47.456;19.160;2023-08-06T17:35:24;99111.95;;;17.49;70.96
61436;BME280;47304;47.456;19.160;2023-08-06T17:37:51;99114.70;;;17.47;71.13
61436;BME280;47304;47.456;19.160;2023-08-06T17:40:18;99120.48;;;17.44;71.13
61436;BME280;47304;47.456;19.160;2023-08-06T17:42:45;99120.66;;;17.41;71.10
61436;BME280;47304;47.456;19.160;2023-08-06T17:45:12;99124.14;;;17.39;71.04
61436;BME280;47304;47.456;19.160;2023-08-06T17:47:39;99125.13;;;17.36;71.12
61436;BME280;47304;47.456;19.160;2023-08-06T17:50:08;99127.38;;;17.34;71.08
61436;BME280;47304;47.456;19.160;2023-08-06T17:52:35;99127.77;;;17.29;71.14
61436;BME280;47304;47.456;19.160;2023-08-06T17:55:02;99128.58;;;17.23;71.12
61436;BME280;47304;47.456;19.160;2023-08-06T17:57:30;99126.36;;;17.18;71.30
61436;BME280;47304;47.456;19.160;2023-08-06T17:59:56;99131.70;;;17.13;71.55
61436;BME280;47304;47.456;19.160;2023-08-06T18:02:23;99130.90;;;17.08;71.62
61436;BME280;47304;47.456;19.160;2023-08-06T18:04:50;99134.46;;;17.04;71.71
61436;BME280;47304;47.456;19.160;2023-08-06T18:07:17;99130.33;;;17.01;71.86
61436;BME280;47304;47.456;19.160;2023-08-06T18:09:44;99130.63;;;16.98;71.71
61436;BME280;47304;47.456;19.160;2023-08-06T18:12:11;99124.96;;;16.94;71.77
61436;BME280;47304;47.456;19.160;2023-08-06T18:14:39;99127.92;;;16.91;71.85
61436;BME280;47304;47.456;19.160;2023-08-06T18:17:05;99134.01;;;16.90;72.09
61436;BME280;47304;47.456;19.160;2023-08-06T18:19:32;99140.30;;;16.88;72.07
61436;BME280;47304;47.456;19.160;2023-08-06T18:22:00;99142.18;;;16.85;72.13
61436;BME280;47304;47.456;19.160;2023-08-06T18:24:27;99140.55;;;16.82;72.10
61436;BME280;47304;47.456;19.160;2023-08-06T18:26:54;99143.35;;;16.78;72.11
61436;BME280;47304;47.456;19.160;2023-08-06T18:29:22;99142.10;;;16.75;72.24
61436;BME280;47304;47.456;19.160;2023-08-06T18:31:49;99142.38;;;16.73;72.16
61436;BME280;47304;47.456;19.160;2023-08-06T18:34:16;99143.59;;;16.69;72.14
61436;BME280;47304;47.456;19.160;2023-08-06T18:36:43;99150.80;;;16.66;72.16
61436;BME280;47304;47.456;19.160;2023-08-06T18:39:09;99154.97;;;16.64;72.16
61436;BME280;47304;47.456;19.160;2023-08-06T18:41:36;99153.53;;;16.61;72.20
61436;BME280;47304;47.456;19.160;2023-08-06T18:44:03;99157.88;;;16.58;72.16
61436;BME280;47304;47.456;19.160;2023-08-06T18:46:30;99165.58;;;16.56;72.14
61436;BME280;47304;47.456;19.160;2023-08-06T18:48:57;99171.13;;;16.55;72.14
61436;BME280;47304;47.456;19.160;2023-08-06T18:51:24;99172.27;;;16.52;71.98
61436;BME280;47304;47.456;19.160;2023-08-06T18:53:51;99173.60;;;16.50;72.04
61436;BME280;47304;47.456;19.160;2023-08-06T18:56:18;99177.17;;;16.49;72.20
61436;BME280;47304;47.456;19.160;2023-08-06T18:58:45;99175.27;;;16.49;72.27
61436;BME280;47304;47.456;19.160;2023-08-06T19:01:12;99179.15;;;16.48;72.21
61436;BME280;47304;47.456;19.160;2023-08-06T19:03:39;99183.48;;;16.47;71.96
61436;BME280;47304;47.456;19.160;2023-08-06T19:06:06;99192.58;;;16.45;71.99
61436;BME280;47304;47.456;19.160;2023-08-06T19:08:33;99192.33;;;16.43;72.00
61436;BME280;47304;47.456;19.160;2023-08-06T19:10:59;99192.86;;;16.43;72.09
61436;BME280;47304;47.456;19.160;2023-08-06T19:13:26;99198.21;;;16.41;71.94
61436;BME280;47304;47.456;19.160;2023-08-06T19:15:53;99200.58;;;16.39;71.97
61436;BME280;47304;47.456;19.160;2023-08-06T19:18:20;99203.45;;;16.38;71.92
61436;BME280;47304;47.456;19.160;2023-08-06T19:20:47;99202.80;;;16.37;71.99
61436;BME280;47304;47.456;19.160;2023-08-06T19:23:14;99201.59;;;16.36;71.89
61436;BME280;47304;47.456;19.160;2023-08-06T19:25:42;99205.33;;;16.35;71.90
61436;BME280;47304;47.456;19.160;2023-08-06T19:28:12;99211.26;;;16.33;71.89
61436;BME280;47304;47.456;19.160;2023-08-06T19:30:39;99209.91;;;16.32;72.09
61436;BME280;47304;47.456;19.160;2023-08-06T19:33:11;99214.58;;;16.30;72.19
61436;BME280;47304;47.456;19.160;2023-08-06T19:36:04;99213.43;;;16.28;72.34
61436;BME280;47304;47.456;19.160;2023-08-06T19:38:31;99213.48;;;16.27;72.57
61436;BME280;47304;47.456;19.160;2023-08-06T19:41:06;99214.11;;;16.25;72.67
61436;BME280;47304;47.456;19.160;2023-08-06T19:43:33;99218.60;;;16.23;72.78
61436;BME280;47304;47.456;19.160;2023-08-06T19:46:01;99217.59;;;16.22;72.86
61436;BME280;47304;47.456;19.160;2023-08-06T19:48:28;99220.78;;;16.21;72.97
61436;BME280;47304;47.456;19.160;2023-08-06T19:50:56;99224.16;;;16.21;73.24
61436;BME280;47304;47.456;19.160;2023-08-06T19:53:23;99224.50;;;16.21;73.23
61436;BME280;47304;47.456;19.160;2023-08-06T19:55:50;99219.20;;;16.21;73.30
61436;BME280;47304;47.456;19.160;2023-08-06T19:58:17;99219.25;;;16.20;73.32
61436;BME280;47304;47.456;19.160;2023-08-06T20:00:43;99217.02;;;16.19;73.55
61436;BME280;47304;47.456;19.160;2023-08-06T20:03:10;99223.56;;;16.18;73.78
61436;BME280;47304;47.456;19.160;2023-08-06T20:05:37;99223.94;;;16.18;73.88
61436;BME280;47304;47.456;19.160;2023-08-06T20:08:04;99222.55;;;16.17;73.95
61436;BME280;47304;47.456;19.160;2023-08-06T20:10:31;99223.09;;;16.17;74.17
61436;BME280;47304;47.456;19.160;2023-08-06T20:12:59;99222.04;;;16.16;74.19
61436;BME280;47304;47.456;19.160;2023-08-06T20:15:26;99214.62;;;16.17;74.41
61436;BME280;47304;47.456;19.160;2023-08-06T20:17:53;99216.90;;;16.17;74.47
61436;BME280;47304;47.456;19.160;2023-08-06T20:20:20;99221.82;;;16.18;74.45
61436;BME280;47304;47.456;19.160;2023-08-06T20:22:47;99226.54;;;16.19;74.69
61436;BME280;47304;47.456;19.160;2023-08-06T20:25:14;99231.65;;;16.19;74.81
61436;BME280;47304;47.456;19.160;2023-08-06T20:27:40;99228.84;;;16.19;74.86
61436;BME280;47304;47.456;19.160;2023-08-06T20:30:08;99226.95;;;16.17;74.99
61436;BME280;47304;47.456;19.160;2023-08-06T20:32:35;99226.79;;;16.17;75.32
61436;BME280;47304;47.456;19.160;2023-08-06T20:35:02;99220.48;;;16.16;75.32
61436;BME280;47304;47.456;19.160;2023-08-06T20:37:29;99221.06;;;16.14;75.40
61436;BME280;47304;47.456;19.160;2023-08-06T20:39:55;99223.25;;;16.13;75.41
61436;BME280;47304;47.456;19.160;2023-08-06T20:42:23;99221.51;;;16.13;75.55
61436;BME280;47304;47.456;19.160;2023-08-06T20:44:49;99226.08;;;16.13;75.41
61436;BME280;47304;47.456;19.160;2023-08-06T20:47:16;99232.61;;;16.13;75.51
61436;BME280;47304;47.456;19.160;2023-08-06T20:49:43;99234.53;;;16.14;75.56
61436;BME280;47304;47.456;19.160;2023-08-06T20:52:10;99236.39;;;16.16;75.63
61436;BME280;47304;47.456;19.160;2023-08-06T20:54:37;99234.73;;;16.17;75.75
61436;BME280;47304;47.456;19.160;2023-08-06T20:57:04;99239.61;;;16.19;75.77
61436;BME280;47304;47.456;19.160;2023-08-06T20:59:31;99236.38;;;16.20;75.65
61436;BME280;47304;47.456;19.160;2023-08-06T21:01:59;99238.27;;;16.21;75.70
61436;BME280;47304;47.456;19.160;2023-08-06T21:04:26;99240.57;;;16.21;75.59
61436;BME280;47304;47.456;19.160;2023-08-06T21:06:53;99244.95;;;16.22;75.39
61436;BME280;47304;47.456;19.160;2023-08-06T21:09:20;99240.59;;;16.25;75.44
61436;BME280;47304;47.456;19.160;2023-08-06T21:11:47;99247.41;;;16.27;75.26
61436;BME280;47304;47.456;19.160;2023-08-06T21:14:14;99247.40;;;16.27;75.12
61436;BME280;47304;47.456;19.160;2023-08-06T21:16:41;99247.41;;;16.27;75.25
61436;BME280;47304;47.456;19.160;2023-08-06T21:19:08;99254.24;;;16.28;75.12
61436;BME280;47304;47.456;19.160;2023-08-06T21:21:35;99259.17;;;16.29;75.01
61436;BME280;47304;47.456;19.160;2023-08-06T21:24:03;99261.23;;;16.30;75.11
61436;BME280;47304;47.456;19.160;2023-08-06T21:26:30;99266.64;;;16.32;74.90
61436;BME280;47304;47.456;19.160;2023-08-06T21:28:57;99263.41;;;16.33;74.75
61436;BME280;47304;47.456;19.160;2023-08-06T21:31:24;99264.22;;;16.34;74.40
61436;BME280;47304;47.456;19.160;2023-08-06T21:33:51;99265.96;;;16.35;74.45
61436;BME280;47304;47.456;19.160;2023-08-06T21:36:18;99269.47;;;16.36;74.07
61436;BME280;47304;47.456;19.160;2023-08-06T21:38:45;99271.92;;;16.37;74.05
61436;BME280;47304;47.456;19.160;2023-08-06T21:41:13;99273.13;;;16.37;74.02
61436;BME280;47304;47.456;19.160;2023-08-06T21:43:44;99280.66;;;16.38;73.97
61436;BME280;47304;47.456;19.160;2023-08-06T21:46:16;99277.51;;;16.38;73.30
61436;BME280;47304;47.456;19.160;2023-08-06T21:48:44;99277.79;;;16.40;73.01
61436;BME280;47304;47.456;19.160;2023-08-06T21:51:17;99282.19;;;16.41;72.82
61436;BME280;47304;47.456;19.160;2023-08-06T21:53:44;99277.92;;;16.41;72.72
61436;BME280;47304;47.456;19.160;2023-08-06T21:56:13;99279.52;;;16.41;72.49
61436;BME280;47304;47.456;19.160;2023-08-06T21:58:44;99281.43;;;16.42;72.32
61436;BME280;47304;47.456;19.160;2023-08-06T22:01:12;99276.14;;;16.42;72.38
61436;BME280;47304;47.456;19.160;2023-08-06T22:03:41;99277.91;;;16.42;71.95
61436;BME280;47304;47.456;19.160;2023-08-06T22:06:08;99282.36;;;16.41;71.40
61436;BME280;47304;47.456;19.160;2023-08-06T22:08:39;99284.82;;;16.42;71.69
61436;BME280;47304;47.456;19.160;2023-08-06T22:11:07;99285.70;;;16.41;71.38
61436;BME280;47304;47.456;19.160;2023-08-06T22:13:34;99290.05;;;16.38;70.97
61436;BME280;47304;47.456;19.160;2023-08-06T22:16:01;99287.28;;;16.37;70.56
61436;BME280;47304;47.456;19.160;2023-08-06T22:18:28;99289.96;;;16.36;70.37
61436;BME280;47304;47.456;19.160;2023-08-06T22:20:56;99291.77;;;16.35;70.17
61436;BME280;47304;47.456;19.160;2023-08-06T22:23:23;99289.56;;;16.33;69.67
61436;BME280;47304;47.456;19.160;2023-08-06T22:25:51;99291.75;;;16.31;69.63
61436;BME280;47304;47.456;19.160;2023-08-06T22:28:22;99290.20;;;16.31;69.24
61436;BME280;47304;47.456;19.160;2023-08-06T22:30:49;99291.52;;;16.29;68.73
61436;BME280;47304;47.456;19.160;2023-08-06T22:33:16;99294.59;;;16.26;68.51
61436;BME280;47304;47.456;19.160;2023-08-06T22:35:43;99302.58;;;16.26;68.31
61436;BME280;47304;47.456;19.160;2023-08-06T22:38:10;99306.86;;;16.25;67.46
61436;BME280;47304;47.456;19.160;2023-08-06T22:40:37;99306.43;;;16.22;67.35
61436;BME280;47304;47.456;19.160;2023-08-06T22:43:04;99312.73;;;16.20;67.02
61436;BME280;47304;47.456;19.160;2023-08-06T22:45:31;99312.99;;;16.17;66.91
61436;BME280;47304;47.456;19.160;2023-08-06T22:47:58;99319.59;;;16.16;66.88
61436;BME280;47304;47.456;19.160;2023-08-06T22:50:25;99323.77;;;16.13;66.68
61436;BME280;47304;47.456;19.160;2023-08-06T22:52:52;99326.52;;;16.11;66.84
61436;BME280;47304;47.456;19.160;2023-08-06T22:55:19;99325.91;;;16.08;66.76
61436;BME280;47304;47.456;19.160;2023-08-06T22:58:05;99324.77;;;16.05;66.80
61436;BME280;47304;47.456;19.160;2023-08-06T23:00:32;99330.33;;;16.03;66.73
61436;BME280;47304;47.456;19.160;2023-08-06T23:02:59;99327.91;;;16.02;66.70
61436;BME280;47304;47.456;19.160;2023-08-06T23:05:36;99337.53;;;16.00;66.67
61436;BME280;47304;47.456;19.160;2023-08-06T23:08:04;99340.80;;;15.98;66.58
61436;BME280;47304;47.456;19.160;2023-08-06T23:10:31;99347.23;;;15.96;66.53
61436;BME280;47304;47.456;19.160;2023-08-06T23:12:58;99344.12;;;15.94;66.32
61436;BME280;47304;47.456;19.160;2023-08-06T23:15:25;99346.29;;;15.93;66.65
61436;BME280;47304;47.456;19.160;2023-08-06T23:17:52;99347.92;;;15.91;66.30
61436;BME280;47304;47.456;19.160;2023-08-06T23:20:19;99346.58;;;15.90;66.28
61436;BME280;47304;47.456;19.160;2023-08-06T23:22:46;99342.38;;;15.88;66.27
61436;BME280;47304;47.456;19.160;2023-08-06T23:25:13;99345.41;;;15.88;66.21
61436;BME280;47304;47.456;19.160;2023-08-06T23:27:40;99353.06;;;15.86;66.03
61436;BME280;47304;47.456;19.160;2023-08-06T23:30:07;99357.18;;;15.85;66.09
61436;BME280;47304;47.456;19.160;2023-08-06T23:32:37;99364.09;;;15.84;66.04
61436;BME280;47304;47.456;19.160;2023-08-06T23:35:04;99370.27;;;15.84;65.96
61436;BME280;47304;47.456;19.160;2023-08-06T23:37:31;99372.04;;;15.84;66.17
61436;BME280;47304;47.456;19.160;2023-08-06T23:39:58;99375.58;;;15.84;66.21
61436;BME280;47304;47.456;19.160;2023-08-06T23:42:25;99381.21;;;15.84;66.00
61436;BME280;47304;47.456;19.160;2023-08-06T23:44:53;99384.08;;;15.82;65.98
61436;BME280;47304;47.456;19.160;2023-08-06T23:47:20;99385.05;;;15.80;65.96
61436;BME280;47304;47.456;19.160;2023-08-06T23:49:47;99386.48;;;15.80;66.06
61436;BME280;47304;47.456;19.160;2023-08-06T23:52:14;99387.61;;;15.78;65.81
61436;BME280;47304;47.456;19.160;2023-08-06T23:54:41;99386.27;;;15.76;66.14
61436;BME280;47304;47.456;19.160;2023-08-06T23:57:08;99386.49;;;15.74;66.34
61436;BME280;47304;47.456;19.160;2023-08-06T23:59:35;99386.19;;;15.73;66.38
